sensor_id;sensor_type;location;lat;lon;timestamp;pressure;altitude;pressure_sealevel;temperature;humidity
10476;BME280;26166;48.264;11.436;2024-02-16T00:00:09;96158.56;;;10.03;64.27
10476;BME280;26166;48.264;11.436;2024-02-16T00:03:12;96152.69;;;10.01;64.03
10476;BME280;26166;48.264;11.436;2024-02-16T00:06:13;96153.66;;;10.00;64.37
10476;BME280;26166;48.264;11.436;2024-02-16T00:09:13;96155.63;;;9.98;63.97
10476;BME280;26166;48.264;11.436;2024-02-16T00:12:13;96158.91;;;10.00;64.37
10476;BME280;26166;48.264;11.436;2024-02-16T00:15:14;96143.31;;;9.98;64.15
10476;BME280;26166;48.264;11.436;2024-02-16T00:18:14;96149.38;;;9.99;64.04
10476;BME280;26166;48.264;11.436;2024-02-16T00:21:15;96144.97;;;9.99;63.83
10476;BME280;26166;48.264;11.436;2024-02-16T00:24:16;96141.69;;;9.97;63.88
10476;BME280;26166;48.264;11.436;2024-02-16T00:27:17;96132.19;;;9.96;64.21
10476;BME280;26166;48.264;11.436;2024-02-16T00:30:17;96134.97;;;9.95;64.01
10476;BME280;26166;48.264;11.436;2024-02-16T00:33:18;96140.22;;;9.95;64.30
10476;BME280;26166;48.264;11.436;2024-02-16T00:36:18;96137.59;;;9.95;64.15
10476;BME280;26166;48.264;11.436;2024-02-16T00:39:19;96127.09;;;9.95;63.81
10476;BME280;26166;48.264;11.436;2024-02-16T00:42:19;96126.28;;;9.94;64.15
10476;BME280;26166;48.264;11.436;2024-02-16T00:45:19;96129.56;;;9.96;64.07
10476;BME280;26166;48.264;11.436;2024-02-16T00:48:20;96127.09;;;9.95;64.30
10476;BME280;26166;48.264;11.436;2024-02-16T00:51:20;96123.81;;;9.93;64.71
10476;BME280;26166;48.264;11.436;2024-02-16T00:54:20;96116.59;;;9.95;64.29
10476;BME280;26166;48.264;11.436;2024-02-16T00:57:20;96122.84;;;9.94;64.34
10476;BME280;26166;48.264;11.436;2024-02-16T01:00:21;96118.56;;;9.93;64.41
10476;BME280;26166;48.264;11.436;2024-02-16T01:03:23;96118.56;;;9.93;64.88
10476;BME280;26166;48.264;11.436;2024-02-16T01:06:26;96122.84;;;9.94;64.50
10476;BME280;26166;48.264;11.436;2024-02-16T01:09:26;96122.19;;;9.92;65.19
10476;BME280;26166;48.264;11.436;2024-02-16T01:12:26;96125.63;;;9.92;65.04
10476;BME280;26166;48.264;11.436;2024-02-16T01:15:28;96127.25;;;9.93;64.67
10476;BME280;26166;48.264;11.436;2024-02-16T01:18:28;96125.47;;;9.94;65.07
10476;BME280;26166;48.264;11.436;2024-02-16T01:21:29;96127.91;;;9.95;64.89
10476;BME280;26166;48.264;11.436;2024-02-16T01:24:29;96134.97;;;9.95;64.99
10476;BME280;26166;48.264;11.436;2024-02-16T01:27:29;96126.28;;;9.94;64.94
10476;BME280;26166;48.264;11.436;2024-02-16T01:30:29;96127.09;;;9.95;64.85
10476;BME280;26166;48.264;11.436;2024-02-16T01:33:30;96127.91;;;9.95;65.16
10476;BME280;26166;48.264;11.436;2024-02-16T01:36:30;96130.72;;;9.94;65.35
10476;BME280;26166;48.264;11.436;2024-02-16T01:39:30;96130.88;;;9.92;65.28
10476;BME280;26166;48.264;11.436;2024-02-16T01:42:31;96123.81;;;9.93;65.35
10476;BME280;26166;48.264;11.436;2024-02-16T01:45:31;96115.28;;;9.91;65.58
10476;BME280;26166;48.264;11.436;2024-02-16T01:48:31;96116.94;;;9.92;65.47
10476;BME280;26166;48.264;11.436;2024-02-16T01:51:31;96103.84;;;9.92;65.40
10476;BME280;26166;48.264;11.436;2024-02-16T01:54:32;96105.78;;;9.90;65.74
10476;BME280;26166;48.264;11.436;2024-02-16T01:57:33;96111.03;;;9.90;65.78
10476;BME280;26166;48.264;11.436;2024-02-16T02:00:33;96110.38;;;9.88;65.54
10476;BME280;26166;48.264;11.436;2024-02-16T02:03:36;96115.63;;;9.88;65.73
10476;BME280;26166;48.264;11.436;2024-02-16T02:06:36;96110.22;;;9.89;65.37
10476;BME280;26166;48.264;11.436;2024-02-16T02:09:38;96103.97;;;9.90;65.26
10476;BME280;26166;48.264;11.436;2024-02-16T02:12:39;96105.59;;;9.91;65.34
10476;BME280;26166;48.264;11.436;2024-02-16T02:15:39;96104.47;;;9.94;65.38
10476;BME280;26166;48.264;11.436;2024-02-16T02:18:39;96106.09;;;9.95;65.19
10476;BME280;26166;48.264;11.436;2024-02-16T02:21:40;96104.47;;;9.94;65.31
10476;BME280;26166;48.264;11.436;2024-02-16T02:24:41;96101.84;;;9.94;65.21
10476;BME280;26166;48.264;11.436;2024-02-16T02:27:41;96117.41;;;9.95;65.46
10476;BME280;26166;48.264;11.436;2024-02-16T02:30:43;96105.47;;;9.93;65.64
10476;BME280;26166;48.264;11.436;2024-02-16T02:33:45;96106.28;;;9.93;65.30
10476;BME280;26166;48.264;11.436;2024-02-16T02:36:45;96103.84;;;9.92;65.54
10476;BME280;26166;48.264;11.436;2024-02-16T02:39:46;96103.84;;;9.92;65.38
10476;BME280;26166;48.264;11.436;2024-02-16T02:42:46;96116.94;;;9.92;65.13
10476;BME280;26166;48.264;11.436;2024-02-16T02:45:46;96108.09;;;9.93;65.49
10476;BME280;26166;48.264;11.436;2024-02-16T02:48:46;96104.16;;;9.97;65.36
10476;BME280;26166;48.264;11.436;2024-02-16T02:51:46;96097.91;;;9.98;64.95
10476;BME280;26166;48.264;11.436;2024-02-16T02:54:46;96103.16;;;9.98;65.30
10476;BME280;26166;48.264;11.436;2024-02-16T02:57:47;96102.47;;;9.96;65.21
10476;BME280;26166;48.264;11.436;2024-02-16T03:00:48;96097.22;;;9.96;65.10
10476;BME280;26166;48.264;11.436;2024-02-16T03:03:48;96098.22;;;9.95;65.20
10476;BME280;26166;48.264;11.436;2024-02-16T03:06:51;96102.97;;;9.91;65.18
10476;BME280;26166;48.264;11.436;2024-02-16T03:09:51;96099.91;;;9.88;65.37
10476;BME280;26166;48.264;11.436;2024-02-16T03:12:51;96100.84;;;9.86;65.56
10476;BME280;26166;48.264;11.436;2024-02-16T03:15:51;96104.28;;;9.87;65.47
10476;BME280;26166;48.264;11.436;2024-02-16T03:18:53;96094.66;;;9.88;65.46
10476;BME280;26166;48.264;11.436;2024-02-16T03:21:54;96097.09;;;9.89;65.37
10476;BME280;26166;48.264;11.436;2024-02-16T03:24:55;96092.03;;;9.88;65.66
10476;BME280;26166;48.264;11.436;2024-02-16T03:27:56;96102.53;;;9.88;65.37
10476;BME280;26166;48.264;11.436;2024-02-16T03:30:56;96105.16;;;9.88;65.52
10476;BME280;26166;48.264;11.436;2024-02-16T03:33:56;96099.06;;;9.87;65.27
10476;BME280;26166;48.264;11.436;2024-02-16T03:36:57;96106.78;;;9.89;65.49
10476;BME280;26166;48.264;11.436;2024-02-16T03:39:59;96106.09;;;9.86;65.59
10476;BME280;26166;48.264;11.436;2024-02-16T03:42:59;96103.47;;;9.86;65.50
10476;BME280;26166;48.264;11.436;2024-02-16T03:45:59;96112.34;;;9.85;65.18
10476;BME280;26166;48.264;11.436;2024-02-16T03:48:59;96113.00;;;9.88;65.26
10476;BME280;26166;48.264;11.436;2024-02-16T03:51:59;96108.72;;;9.86;65.28
10476;BME280;26166;48.264;11.436;2024-02-16T03:55:00;96117.59;;;9.85;65.00
10476;BME280;26166;48.264;11.436;2024-02-16T03:58:00;96120.22;;;9.85;65.28
10476;BME280;26166;48.264;11.436;2024-02-16T04:01:00;96128.09;;;9.85;65.28
10476;BME280;26166;48.264;11.436;2024-02-16T04:04:00;96127.75;;;9.89;64.96
10476;BME280;26166;48.264;11.436;2024-02-16T04:07:00;96129.41;;;9.90;64.99
10476;BME280;26166;48.264;11.436;2024-02-16T04:10:01;96126.94;;;9.88;65.24
10476;BME280;26166;48.264;11.436;2024-02-16T04:13:02;96128.09;;;9.85;65.11
10476;BME280;26166;48.264;11.436;2024-02-16T04:16:02;96121.69;;;9.88;65.02
10476;BME280;26166;48.264;11.436;2024-02-16T04:19:02;96127.09;;;9.86;65.30
10476;BME280;26166;48.264;11.436;2024-02-16T04:22:03;96118.25;;;9.88;65.09
10476;BME280;26166;48.264;11.436;2024-02-16T04:25:04;96127.91;;;9.87;65.26
10476;BME280;26166;48.264;11.436;2024-02-16T04:28:04;96129.72;;;9.86;65.30
10476;BME280;26166;48.264;11.436;2024-02-16T04:31:04;96134.97;;;9.86;65.43
10476;BME280;26166;48.264;11.436;2024-02-16T04:34:05;96138.41;;;9.87;65.24
10476;BME280;26166;48.264;11.436;2024-02-16T04:37:05;96137.44;;;9.88;65.04
10476;BME280;26166;48.264;11.436;2024-02-16T04:40:05;96133.00;;;9.89;65.12
10476;BME280;26166;48.264;11.436;2024-02-16T04:43:06;96137.25;;;9.90;65.21
10476;BME280;26166;48.264;11.436;2024-02-16T04:46:06;96136.94;;;9.93;64.76
10476;BME280;26166;48.264;11.436;2024-02-16T04:49:06;96135.13;;;9.93;64.95
10476;BME280;26166;48.264;11.436;2024-02-16T04:52:07;96141.19;;;9.94;65.11
10476;BME280;26166;48.264;11.436;2024-02-16T04:55:08;96132.69;;;9.92;64.62
10476;BME280;26166;48.264;11.436;2024-02-16T04:58:08;96132.69;;;9.92;64.56
10476;BME280;26166;48.264;11.436;2024-02-16T05:01:09;96128.41;;;9.91;64.80
10476;BME280;26166;48.264;11.436;2024-02-16T05:04:10;96133.81;;;9.89;64.81
10476;BME280;26166;48.264;11.436;2024-02-16T05:07:10;96136.63;;;9.88;64.87
10476;BME280;26166;48.264;11.436;2024-02-16T05:10:10;96137.59;;;9.86;65.02
10476;BME280;26166;48.264;11.436;2024-02-16T05:13:11;96130.53;;;9.87;64.80
10476;BME280;26166;48.264;11.436;2024-02-16T05:16:12;96133.34;;;9.85;64.73
10476;BME280;26166;48.264;11.436;2024-02-16T05:19:12;96135.94;;;9.85;65.21
10476;BME280;26166;48.264;11.436;2024-02-16T05:22:12;96140.06;;;9.88;64.89
10476;BME280;26166;48.264;11.436;2024-02-16T05:25:13;96146.28;;;9.87;64.71
10476;BME280;26166;48.264;11.436;2024-02-16T05:28:13;96137.75;;;9.85;64.78
10476;BME280;26166;48.264;11.436;2024-02-16T05:31:15;96138.56;;;9.85;64.86
10476;BME280;26166;48.264;11.436;2024-02-16T05:34:17;96136.94;;;9.84;64.73
10476;BME280;26166;48.264;11.436;2024-02-16T05:37:17;96133.34;;;9.85;64.84
10476;BME280;26166;48.264;11.436;2024-02-16T05:40:18;96138.56;;;9.85;65.00
10476;BME280;26166;48.264;11.436;2024-02-16T05:43:21;96143.81;;;9.85;65.00
10476;BME280;26166;48.264;11.436;2024-02-16T05:46:21;96146.44;;;9.85;64.81
10476;BME280;26166;48.264;11.436;2024-02-16T05:49:21;96147.25;;;9.86;65.02
10476;BME280;26166;48.264;11.436;2024-02-16T05:52:22;96152.69;;;9.84;64.88
10476;BME280;26166;48.264;11.436;2024-02-16T05:55:23;96143.81;;;9.85;64.67
10476;BME280;26166;48.264;11.436;2024-02-16T05:58:24;96142.03;;;9.86;64.55
10476;BME280;26166;48.264;11.436;2024-02-16T06:01:24;96142.19;;;9.84;64.72
10476;BME280;26166;48.264;11.436;2024-02-16T06:04:25;96144.66;;;9.86;64.76
10476;BME280;26166;48.264;11.436;2024-02-16T06:07:25;96147.25;;;9.86;64.54
10476;BME280;26166;48.264;11.436;2024-02-16T06:10:25;96142.69;;;9.88;64.40
10476;BME280;26166;48.264;11.436;2024-02-16T06:13:25;96145.94;;;9.90;64.15
10476;BME280;26166;48.264;11.436;2024-02-16T06:16:26;96146.78;;;9.91;64.45
10476;BME280;26166;48.264;11.436;2024-02-16T06:19:26;96157.44;;;9.89;64.25
10476;BME280;26166;48.264;11.436;2024-02-16T06:22:26;96158.25;;;9.90;64.50
10476;BME280;26166;48.264;11.436;2024-02-16T06:25:26;96169.75;;;9.89;64.31
10476;BME280;26166;48.264;11.436;2024-02-16T06:28:26;96173.34;;;9.88;64.60
10476;BME280;26166;48.264;11.436;2024-02-16T06:31:27;96181.22;;;9.88;64.39
10476;BME280;26166;48.264;11.436;2024-02-16T06:34:27;96177.75;;;9.87;64.35
10476;BME280;26166;48.264;11.436;2024-02-16T06:37:27;96194.34;;;9.88;64.49
10476;BME280;26166;48.264;11.436;2024-02-16T06:40:28;96196.97;;;9.88;64.27
10476;BME280;26166;48.264;11.436;2024-02-16T06:43:28;96194.34;;;9.88;64.24
10476;BME280;26166;48.264;11.436;2024-02-16T06:46:28;96210.22;;;9.86;64.39
10476;BME280;26166;48.264;11.436;2024-02-16T06:49:29;96215.16;;;9.81;64.11
10476;BME280;26166;48.264;11.436;2024-02-16T06:52:29;96213.34;;;9.81;64.66
10476;BME280;26166;48.264;11.436;2024-02-16T06:55:29;96221.22;;;9.81;64.35
10476;BME280;26166;48.264;11.436;2024-02-16T06:58:29;96215.66;;;9.84;64.10
10476;BME280;26166;48.264;11.436;2024-02-16T07:01:30;96219.72;;;9.87;64.15
10476;BME280;26166;48.264;11.436;2024-02-16T07:04:30;96219.72;;;9.87;63.99
10476;BME280;26166;48.264;11.436;2024-02-16T07:07:30;96223.22;;;9.88;64.08
10476;BME280;26166;48.264;11.436;2024-02-16T07:10:34;96232.03;;;9.86;64.27
10476;BME280;26166;48.264;11.436;2024-02-16T07:13:34;96237.97;;;9.89;64.33
10476;BME280;26166;48.264;11.436;2024-02-16T07:16:34;96238.94;;;9.88;64.10
10476;BME280;26166;48.264;11.436;2024-02-16T07:19:35;96239.09;;;9.86;64.40
10476;BME280;26166;48.264;11.436;2024-02-16T07:22:35;96234.00;;;9.84;64.06
10476;BME280;26166;48.264;11.436;2024-02-16T07:25:36;96240.72;;;9.87;64.25
10476;BME280;26166;48.264;11.436;2024-02-16T07:28:36;96234.66;;;9.86;64.26
10476;BME280;26166;48.264;11.436;2024-02-16T07:31:36;96240.91;;;9.85;64.00
10476;BME280;26166;48.264;11.436;2024-02-16T07:34:37;96239.09;;;9.86;64.26
10476;BME280;26166;48.264;11.436;2024-02-16T07:37:38;96241.88;;;9.84;64.05
10476;BME280;26166;48.264;11.436;2024-02-16T07:40:38;96244.50;;;9.84;64.48
10476;BME280;26166;48.264;11.436;2024-02-16T07:43:39;96241.56;;;9.88;64.40
10476;BME280;26166;48.264;11.436;2024-02-16T07:46:39;96248.44;;;9.89;64.25
10476;BME280;26166;48.264;11.436;2024-02-16T07:49:40;96249.28;;;9.89;64.09
10476;BME280;26166;48.264;11.436;2024-02-16T07:52:40;96252.06;;;9.88;64.21
10476;BME280;26166;48.264;11.436;2024-02-16T07:55:40;96257.31;;;9.88;64.23
10476;BME280;26166;48.264;11.436;2024-02-16T07:58:43;96257.31;;;9.88;64.10
10476;BME280;26166;48.264;11.436;2024-02-16T08:01:43;96262.56;;;9.88;64.06
10476;BME280;26166;48.264;11.436;2024-02-16T08:04:48;96258.94;;;9.89;64.16
10476;BME280;26166;48.264;11.436;2024-02-16T08:07:48;96264.19;;;9.89;64.16
10476;BME280;26166;48.264;11.436;2024-02-16T08:10:49;96256.97;;;9.91;63.94
10476;BME280;26166;48.264;11.436;2024-02-16T08:13:49;96260.59;;;9.90;64.40
10476;BME280;26166;48.264;11.436;2024-02-16T08:16:49;96255.34;;;9.90;64.28
10476;BME280;26166;48.264;11.436;2024-02-16T08:19:52;96261.41;;;9.90;64.03
10476;BME280;26166;48.264;11.436;2024-02-16T08:22:54;96252.72;;;9.90;64.20
10476;BME280;26166;48.264;11.436;2024-02-16T08:25:54;96258.94;;;9.89;64.38
10476;BME280;26166;48.264;11.436;2024-02-16T08:28:54;96260.06;;;9.86;64.41
10476;BME280;26166;48.264;11.436;2024-02-16T08:31:54;96261.25;;;9.83;64.32
10476;BME280;26166;48.264;11.436;2024-02-16T08:34:54;96263.53;;;9.86;64.32
10476;BME280;26166;48.264;11.436;2024-02-16T08:37:56;96261.72;;;9.87;64.13
10476;BME280;26166;48.264;11.436;2024-02-16T08:40:56;96262.69;;;9.86;64.42
10476;BME280;26166;48.264;11.436;2024-02-16T08:43:56;96265.31;;;9.86;64.45
10476;BME280;26166;48.264;11.436;2024-02-16T08:46:57;96256.00;;;9.83;64.18
10476;BME280;26166;48.264;11.436;2024-02-16T08:49:57;96256.94;;;9.82;64.35
10476;BME280;26166;48.264;11.436;2024-02-16T08:52:57;96264.81;;;9.82;65.00
10476;BME280;26166;48.264;11.436;2024-02-16T08:55:57;96263.19;;;9.81;64.80
10476;BME280;26166;48.264;11.436;2024-02-16T08:58:58;96263.06;;;9.83;64.83
10476;BME280;26166;48.264;11.436;2024-02-16T09:01:58;96263.19;;;9.81;64.70
10476;BME280;26166;48.264;11.436;2024-02-16T09:04:58;96264.81;;;9.82;64.67
10476;BME280;26166;48.264;11.436;2024-02-16T09:07:58;96272.56;;;9.84;64.73
10476;BME280;26166;48.264;11.436;2024-02-16T09:10:59;96268.94;;;9.85;64.71
10476;BME280;26166;48.264;11.436;2024-02-16T09:13:59;96276.00;;;9.84;64.83
10476;BME280;26166;48.264;11.436;2024-02-16T09:17:00;96274.69;;;9.89;64.58
10476;BME280;26166;48.264;11.436;2024-02-16T09:20:00;96281.56;;;9.90;64.58
10476;BME280;26166;48.264;11.436;2024-02-16T09:23:03;96279.13;;;9.88;64.74
10476;BME280;26166;48.264;11.436;2024-02-16T09:26:04;96273.88;;;9.88;64.54
10476;BME280;26166;48.264;11.436;2024-02-16T09:29:04;96274.38;;;9.92;64.26
10476;BME280;26166;48.264;11.436;2024-02-16T09:32:05;96271.25;;;9.96;64.91
10476;BME280;26166;48.264;11.436;2024-02-16T09:35:05;96264.22;;;10.05;64.24
10476;BME280;26166;48.264;11.436;2024-02-16T09:38:06;96272.25;;;10.11;63.68
10476;BME280;26166;48.264;11.436;2024-02-16T09:41:06;96264.56;;;10.18;63.47
10476;BME280;26166;48.264;11.436;2024-02-16T09:44:06;96273.06;;;10.20;63.61
10476;BME280;26166;48.264;11.436;2024-02-16T09:47:07;96270.81;;;10.25;63.33
10476;BME280;26166;48.264;11.436;2024-02-16T09:50:10;96262.59;;;10.28;63.23
10476;BME280;26166;48.264;11.436;2024-02-16T09:53:10;96264.91;;;10.31;62.94
10476;BME280;26166;48.264;11.436;2024-02-16T09:56:11;96266.88;;;10.29;63.11
10476;BME280;26166;48.264;11.436;2024-02-16T09:59:12;96266.53;;;10.32;63.52
10476;BME280;26166;48.264;11.436;2024-02-16T10:02:12;96272.28;;;10.36;62.83
10476;BME280;26166;48.264;11.436;2024-02-16T10:05:16;96266.19;;;10.35;63.04
10476;BME280;26166;48.264;11.436;2024-02-16T10:08:17;96268.69;;;10.37;62.55
10476;BME280;26166;48.264;11.436;2024-02-16T10:11:21;96273.13;;;10.37;62.85
10476;BME280;26166;48.264;11.436;2024-02-16T10:14:21;96265.69;;;10.40;62.94
10476;BME280;26166;48.264;11.436;2024-02-16T10:17:22;96275.38;;;10.40;62.70
10476;BME280;26166;48.264;11.436;2024-02-16T10:20:22;96280.31;;;10.43;62.76
10476;BME280;26166;48.264;11.436;2024-02-16T10:23:22;96280.31;;;10.43;62.51
10476;BME280;26166;48.264;11.436;2024-02-16T10:26:22;96272.44;;;10.43;62.76
10476;BME280;26166;48.264;11.436;2024-02-16T10:29:23;96274.06;;;10.44;62.33
10476;BME280;26166;48.264;11.436;2024-02-16T10:32:25;96274.88;;;10.44;62.40
10476;BME280;26166;48.264;11.436;2024-02-16T10:35:25;96274.06;;;10.44;62.31
10476;BME280;26166;48.264;11.436;2024-02-16T10:38:28;96281.00;;;10.45;62.77
10476;BME280;26166;48.264;11.436;2024-02-16T10:41:29;96275.75;;;10.45;62.70
10476;BME280;26166;48.264;11.436;2024-02-16T10:44:29;96281.47;;;10.48;62.55
10476;BME280;26166;48.264;11.436;2024-02-16T10:47:30;96273.44;;;10.50;62.21
10476;BME280;26166;48.264;11.436;2024-02-16T10:50:31;96277.38;;;10.54;62.37
10476;BME280;26166;48.264;11.436;2024-02-16T10:53:32;96269.97;;;10.57;61.75
10476;BME280;26166;48.264;11.436;2024-02-16T10:56:33;96271.44;;;10.60;62.05
10476;BME280;26166;48.264;11.436;2024-02-16T10:59:40;96271.13;;;10.63;61.49
10476;BME280;26166;48.264;11.436;2024-02-16T11:02:57;96264.88;;;10.64;61.60
10476;BME280;26166;48.264;11.436;2024-02-16T11:05:59;96264.88;;;10.64;61.29
10476;BME280;26166;48.264;11.436;2024-02-16T11:09:02;96259.78;;;10.63;61.43
10476;BME280;26166;48.264;11.436;2024-02-16T11:12:11;96253.69;;;10.62;61.65
10476;BME280;26166;48.264;11.436;2024-02-16T11:15:26;96252.06;;;10.61;61.48
10476;BME280;26166;48.264;11.436;2024-02-16T11:18:27;96254.88;;;10.59;61.72
10476;BME280;26166;48.264;11.436;2024-02-16T11:21:27;96246.16;;;10.59;61.88
10476;BME280;26166;48.264;11.436;2024-02-16T11:24:29;96244.19;;;10.61;61.96
10476;BME280;26166;48.264;11.436;2024-02-16T11:27:30;96239.25;;;10.66;62.05
10476;BME280;26166;48.264;11.436;2024-02-16T11:30:34;96235.66;;;10.67;62.11
10476;BME280;26166;48.264;11.436;2024-02-16T11:33:35;96233.03;;;10.67;62.34
10476;BME280;26166;48.264;11.436;2024-02-16T11:36:36;96234.16;;;10.65;62.41
10476;BME280;26166;48.264;11.436;2024-02-16T11:39:36;96229.72;;;10.65;62.42
10476;BME280;26166;48.264;11.436;2024-02-16T11:42:37;96228.22;;;10.71;62.46
10476;BME280;26166;48.264;11.436;2024-02-16T11:45:37;96222.00;;;10.72;62.40
10476;BME280;26166;48.264;11.436;2024-02-16T11:48:38;96227.09;;;10.73;62.84
10476;BME280;26166;48.264;11.436;2024-02-16T11:51:38;96227.56;;;10.77;62.43
10476;BME280;26166;48.264;11.436;2024-02-16T11:54:43;96227.06;;;10.81;62.73
10476;BME280;26166;48.264;11.436;2024-02-16T11:57:43;96225.06;;;10.83;62.51
10476;BME280;26166;48.264;11.436;2024-02-16T12:00:48;96235.75;;;10.90;62.09
10476;BME280;26166;48.264;11.436;2024-02-16T12:03:48;96228.00;;;10.97;61.96
10476;BME280;26166;48.264;11.436;2024-02-16T12:06:50;96233.22;;;11.05;61.79
10476;BME280;26166;48.264;11.436;2024-02-16T12:10:00;96232.72;;;11.09;61.37
10476;BME280;26166;48.264;11.436;2024-02-16T12:13:01;96235.16;;;11.11;61.36
10476;BME280;26166;48.264;11.436;2024-02-16T12:16:01;96229.56;;;11.14;61.08
10476;BME280;26166;48.264;11.436;2024-02-16T12:19:05;96230.06;;;11.18;61.19
10476;BME280;26166;48.264;11.436;2024-02-16T12:22:05;96230.88;;;11.18;61.06
10476;BME280;26166;48.264;11.436;2024-02-16T12:25:06;96225.31;;;11.13;61.21
10476;BME280;26166;48.264;11.436;2024-02-16T12:28:06;96228.13;;;11.11;61.24
10476;BME280;26166;48.264;11.436;2024-02-16T12:31:07;96237.78;;;11.11;61.46
10476;BME280;26166;48.264;11.436;2024-02-16T12:34:08;96241.38;;;11.18;61.57
10476;BME280;26166;48.264;11.436;2024-02-16T12:37:08;96236.44;;;11.23;61.37
10476;BME280;26166;48.264;11.436;2024-02-16T12:40:11;96236.09;;;11.26;60.93
10476;BME280;26166;48.264;11.436;2024-02-16T12:43:11;96240.38;;;11.27;61.18
10476;BME280;26166;48.264;11.436;2024-02-16T12:46:12;96240.38;;;11.27;61.02
10476;BME280;26166;48.264;11.436;2024-02-16T12:49:13;96245.28;;;11.30;61.15
10476;BME280;26166;48.264;11.436;2024-02-16T12:52:18;96239.22;;;11.30;60.88
10476;BME280;26166;48.264;11.436;2024-02-16T12:55:19;96240.22;;;11.29;61.01
10476;BME280;26166;48.264;11.436;2024-02-16T12:58:19;96239.22;;;11.30;60.95
10476;BME280;26166;48.264;11.436;2024-02-16T13:01:19;96242.66;;;11.30;61.30
10476;BME280;26166;48.264;11.436;2024-02-16T13:04:20;96240.03;;;11.30;61.23
10476;BME280;26166;48.264;11.436;2024-02-16T13:07:21;96247.25;;;11.28;60.97
10476;BME280;26166;48.264;11.436;2024-02-16T13:10:21;96243.31;;;11.24;61.36
10476;BME280;26166;48.264;11.436;2024-02-16T13:13:21;96248.44;;;11.26;61.34
10476;BME280;26166;48.264;11.436;2024-02-16T13:16:22;96239.53;;;11.27;61.81
10476;BME280;26166;48.264;11.436;2024-02-16T13:19:22;96237.59;;;11.29;61.77
10476;BME280;26166;48.264;11.436;2024-02-16T13:22:23;96245.28;;;11.30;61.23
10476;BME280;26166;48.264;11.436;2024-02-16T13:25:24;96247.75;;;11.32;61.36
10476;BME280;26166;48.264;11.436;2024-02-16T13:28:24;96247.59;;;11.33;61.95
10476;BME280;26166;48.264;11.436;2024-02-16T13:31:24;96246.59;;;11.34;61.77
10476;BME280;26166;48.264;11.436;2024-02-16T13:34:25;96253.97;;;11.39;61.49
10476;BME280;26166;48.264;11.436;2024-02-16T13:37:27;96252.78;;;11.42;61.58
10476;BME280;26166;48.264;11.436;2024-02-16T13:40:27;96248.38;;;11.42;61.17
10476;BME280;26166;48.264;11.436;2024-02-16T13:43:27;96258.03;;;11.42;61.63
10476;BME280;26166;48.264;11.436;2024-02-16T13:46:28;96260.03;;;11.40;61.80
10476;BME280;26166;48.264;11.436;2024-02-16T13:49:28;96252.16;;;11.40;61.64
10476;BME280;26166;48.264;11.436;2024-02-16T13:52:28;96259.22;;;11.39;61.92
10476;BME280;26166;48.264;11.436;2024-02-16T13:55:28;96264.00;;;11.35;62.00
10476;BME280;26166;48.264;11.436;2024-02-16T13:58:29;96260.72;;;11.33;62.16
10476;BME280;26166;48.264;11.436;2024-02-16T14:01:30;96268.78;;;11.32;61.91
10476;BME280;26166;48.264;11.436;2024-02-16T14:04:31;96266.31;;;11.30;62.23
10476;BME280;26166;48.264;11.436;2024-02-16T14:07:31;96270.78;;;11.30;62.32
10476;BME280;26166;48.264;11.436;2024-02-16T14:10:32;96263.03;;;11.28;62.45
10476;BME280;26166;48.264;11.436;2024-02-16T14:13:32;96271.91;;;11.27;62.51
10476;BME280;26166;48.264;11.436;2024-02-16T14:16:33;96271.91;;;11.27;62.75
10476;BME280;26166;48.264;11.436;2024-02-16T14:19:33;96267.16;;;11.23;63.04
10476;BME280;26166;48.264;11.436;2024-02-16T14:22:37;96270.50;;;11.17;63.38
10476;BME280;26166;48.264;11.436;2024-02-16T14:25:37;96269.81;;;11.15;63.20
10476;BME280;26166;48.264;11.436;2024-02-16T14:28:37;96275.59;;;11.10;63.56
10476;BME280;26166;48.264;11.436;2024-02-16T14:31:37;96274.28;;;11.06;63.94
10476;BME280;26166;48.264;11.436;2024-02-16T14:34:38;96269.38;;;11.03;64.32
10476;BME280;26166;48.264;11.436;2024-02-16T14:37:38;96273.97;;;11.01;64.27
10476;BME280;26166;48.264;11.436;2024-02-16T14:40:38;96276.13;;;10.97;64.35
10476;BME280;26166;48.264;11.436;2024-02-16T14:43:39;96285.81;;;10.97;64.61
10476;BME280;26166;48.264;11.436;2024-02-16T14:46:40;96284.19;;;10.96;64.95
10476;BME280;26166;48.264;11.436;2024-02-16T14:49:40;96280.56;;;10.97;64.85
10476;BME280;26166;48.264;11.436;2024-02-16T14:52:41;96285.81;;;10.97;65.08
10476;BME280;26166;48.264;11.436;2024-02-16T14:55:41;96302.41;;;10.97;64.89
10476;BME280;26166;48.264;11.436;2024-02-16T14:58:41;96297.97;;;10.98;64.98
10476;BME280;26166;48.264;11.436;2024-02-16T15:01:42;96290.94;;;10.98;65.20
10476;BME280;26166;48.264;11.436;2024-02-16T15:04:42;96294.38;;;10.99;65.08
10476;BME280;26166;48.264;11.436;2024-02-16T15:07:42;96291.88;;;10.97;65.07
10476;BME280;26166;48.264;11.436;2024-02-16T15:10:42;96293.06;;;10.95;65.33
10476;BME280;26166;48.264;11.436;2024-02-16T15:13:43;96296.69;;;10.94;65.43
10476;BME280;26166;48.264;11.436;2024-02-16T15:16:43;96297.66;;;10.93;65.53
10476;BME280;26166;48.264;11.436;2024-02-16T15:19:43;96296.69;;;10.94;65.64
10476;BME280;26166;48.264;11.436;2024-02-16T15:22:44;96299.47;;;10.92;65.54
10476;BME280;26166;48.264;11.436;2024-02-16T15:25:44;96303.09;;;10.91;65.57
10476;BME280;26166;48.264;11.436;2024-02-16T15:28:44;96303.41;;;10.88;65.61
10476;BME280;26166;48.264;11.436;2024-02-16T15:31:44;96301.13;;;10.85;65.86
10476;BME280;26166;48.264;11.436;2024-02-16T15:34:45;96306.53;;;10.83;65.90
10476;BME280;26166;48.264;11.436;2024-02-16T15:37:49;96310.16;;;10.82;66.13
10476;BME280;26166;48.264;11.436;2024-02-16T15:40:49;96311.31;;;10.80;66.18
10476;BME280;26166;48.264;11.436;2024-02-16T15:43:49;96318.53;;;10.78;66.16
10476;BME280;26166;48.264;11.436;2024-02-16T15:46:50;96328.25;;;10.77;65.92
10476;BME280;26166;48.264;11.436;2024-02-16T15:49:50;96335.94;;;10.79;66.07